Time;durP1;ratioP1;P1;durP2;ratioP2;P2;SDS_P1;SDS_P2;PMS_P1;PMS_P2;Temp;Humidity;BMP_temperature;BMP_pressure;BME280_temperature;BME280_humidity;BME280_pressure;Samples;Min_cycle;Max_cycle;Signal;HPM_P1;HPM_P2
2021/06/10 00:01:31;;;;;;;4.47;2.95;;;;;;;24.53;52.80;100954.22;1720742;83;21048;-48
2021/06/10 00:03:58;;;;;;;4.30;3.25;;;;;;;24.50;52.76;100942.50;1673530;85;21093;-47
2021/06/10 00:06:25;;;;;;;6.22;3.20;;;;;;;24.46;53.16;100941.05;1707331;82;21100;-48
2021/06/10 00:08:52;;;;;;;4.55;3.10;;;;;;;24.39;52.73;100950.44;1713068;82;21440;-48
2021/06/10 00:11:19;;;;;;;3.70;3.15;;;;;;;24.39;52.73;100950.44;1706818;82;21118;-48
2021/06/10 00:13:46;;;;;;;3.77;2.80;;;;;;;24.29;52.42;100955.62;1703684;83;21058;-47
2021/06/10 00:16:13;;;;;;;3.85;3.27;;;;;;;24.29;52.42;100955.62;1693368;82;21085;-48
2021/06/10 00:18:40;;;;;;;4.42;3.42;;;;;;;24.23;52.71;100947.60;1708555;82;21485;-47
2021/06/10 00:21:07;;;;;;;4.60;3.50;;;;;;;24.21;53.22;100955.35;1708711;83;21060;-48
2021/06/10 00:23:34;;;;;;;5.28;3.50;;;;;;;24.18;53.44;100956.89;1704807;82;21007;-48
2021/06/10 00:26:02;;;;;;;4.50;3.17;;;;;;;24.14;53.83;100958.95;1668091;85;21047;-47
2021/06/10 00:28:29;;;;;;;6.80;3.92;;;;;;;24.11;54.12;100952.52;1705747;82;21082;-48
2021/06/10 00:30:58;;;;;;;6.47;3.80;;;;;;;24.09;54.44;100951.78;1712994;82;21018;-48
2021/06/10 00:33:25;;;;;;;5.08;3.65;;;;;;;24.05;54.32;100951.64;1706726;83;21041;-47
2021/06/10 00:35:54;;;;;;;4.20;3.37;;;;;;;24.01;54.54;100946.16;1669552;82;21042;-48
2021/06/10 00:38:22;;;;;;;4.20;3.72;;;;;;;23.99;54.90;100953.39;1708464;82;21034;-48
2021/06/10 00:40:49;;;;;;;4.80;3.37;;;;;;;23.96;55.31;100949.66;1715406;83;21628;-48
2021/06/10 00:43:15;;;;;;;11.90;4.47;;;;;;;23.94;55.66;100947.59;1701749;82;21028;-48
2021/06/10 00:45:43;;;;;;;5.03;3.55;;;;;;;23.90;55.82;100955.42;1706808;82;21042;-47
2021/06/10 00:48:10;;;;;;;5.22;3.85;;;;;;;23.88;55.90;100948.05;1703479;82;21128;-47
2021/06/10 00:50:44;;;;;;;5.05;3.72;;;;;;;23.87;56.02;100951.65;1698238;83;21053;-47
2021/06/10 00:53:25;;;;;;;4.35;3.35;;;;;;;23.85;56.06;100953.57;1715207;82;20989;-48
2021/06/10 00:55:56;;;;;;;5.42;3.87;;;;;;;23.81;55.97;100948.12;1704784;82;21045;-47
2021/06/10 00:58:23;;;;;;;4.50;3.10;;;;;;;23.75;56.23;100941.92;1639711;85;21108;-47
2021/06/10 01:00:50;;;;;;;3.95;3.42;;;;;;;23.71;55.78;100941.78;1640341;85;21058;-48
2021/06/10 01:03:17;;;;;;;3.47;3.17;;;;;;;23.67;56.37;100946.95;1652939;85;21071;-47
2021/06/10 01:05:46;;;;;;;5.80;3.37;;;;;;;23.67;56.20;100950.94;1642372;85;21034;-48
2021/06/10 01:08:35;;;;;;;3.37;3.08;;;;;;;23.68;56.47;100943.32;1584088;89;21062;-48
2021/06/10 01:11:30;;;;;;;5.37;2.87;;;;;;;23.70;56.65;100948.04;1650884;85;21100;-48
2021/06/10 01:14:28;;;;;;;5.95;3.55;;;;;;;23.68;56.40;100951.29;1639887;86;21079;-48
2021/06/10 01:16:55;;;;;;;5.35;3.22;;;;;;;23.66;56.95;100947.07;1615080;88;21565;-48
2021/06/10 01:19:45;;;;;;;4.58;3.12;;;;;;;23.67;57.40;100957.58;1643966;86;21067;-47
2021/06/10 01:22:29;;;;;;;5.08;2.98;;;;;;;23.68;57.45;100961.09;1631739;86;21074;-48
2021/06/10 01:25:23;;;;;;;5.30;3.08;;;;;;;23.65;57.44;100951.53;1635520;86;21073;-47
2021/06/10 01:27:56;;;;;;;4.25;3.25;;;;;;;23.65;57.48;100959.50;1630455;86;21041;-48
2021/06/10 01:30:27;;;;;;;3.60;3.22;;;;;;;23.62;57.41;100954.39;1654752;86;21085;-47
2021/06/10 01:32:58;;;;;;;3.35;3.05;;;;;;;23.60;57.45;100958.97;1635139;87;21049;-47
2021/06/10 01:35:28;;;;;;;3.37;3.00;;;;;;;23.57;57.17;100954.37;1634628;87;21014;-48
2021/06/10 01:37:55;;;;;;;3.10;2.80;;;;;;;23.55;57.19;100954.95;1634534;86;21034;-47
2021/06/10 01:40:23;;;;;;;3.00;2.80;;;;;;;23.52;57.25;100961.34;1647168;86;21110;-48
2021/06/10 01:42:50;;;;;;;4.72;2.90;;;;;;;23.51;57.28;100953.02;1602468;88;21083;-47
2021/06/10 01:45:16;;;;;;;3.37;3.08;;;;;;;23.48;57.07;100955.87;1592904;89;21010;-48
2021/06/10 01:47:44;;;;;;;4.40;3.35;;;;;;;23.47;57.58;100952.86;1574848;88;21496;-47
2021/06/10 01:50:13;;;;;;;4.03;3.17;;;;;;;23.47;57.68;100954.20;1594105;88;21114;-48
2021/06/10 01:52:41;;;;;;;5.17;3.27;;;;;;;23.44;57.55;100955.73;1586092;88;21073;-47
2021/06/10 01:55:12;;;;;;;4.55;3.33;;;;;;;23.41;57.63;100955.97;1587154;89;21079;-48
2021/06/10 01:57:39;;;;;;;4.47;3.60;;;;;;;23.39;57.53;100956.05;1627114;86;21791;-48
2021/06/10 02:00:08;;;;;;;4.12;3.05;;;;;;;23.38;57.62;100953.52;1624917;87;21051;-48
2021/06/10 02:02:35;;;;;;;6.30;3.30;;;;;;;23.36;57.55;100953.63;1695365;82;21521;-47
2021/06/10 02:05:10;;;;;;;3.50;3.20;;;;;;;23.37;57.57;100956.64;1711848;82;21026;-47
2021/06/10 02:07:41;;;;;;;5.65;3.00;;;;;;;23.37;57.14;100949.14;1713029;82;21521;-48
2021/06/10 02:10:08;;;;;;;;;;;;;;;;;;1708374;82;21517;-48
2021/06/10 02:12:36;;;;;;;6.22;3.42;;;;;;;23.33;57.24;100951.66;1697938;83;20101;-48
2021/06/10 02:15:07;;;;;;;4.40;3.30;;;;;;;23.26;57.31;100958.34;1701848;82;21056;-47
2021/06/10 02:17:34;;;;;;;5.10;3.37;;;;;;;23.27;57.46;100956.04;1699597;83;21619;-48
2021/06/10 02:20:03;;;;;;;5.67;3.30;;;;;;;23.26;57.21;100957.02;1703329;82;21100;-48
2021/06/10 02:22:29;;;;;;;4.42;3.30;;;;;;;23.22;57.11;100965.69;1709773;83;21586;-48
2021/06/10 02:24:56;;;;;;;6.67;3.45;;;;;;;23.21;57.48;100967.09;1713882;82;21030;-47
2021/06/10 02:27:23;;;;;;;6.40;3.62;;;;;;;23.20;57.25;100959.63;1719953;82;21048;-47
2021/06/10 02:29:49;;;;;;;4.58;3.85;;;;;;;23.19;57.38;100966.36;1710711;82;21041;-47
2021/06/10 02:32:16;;;;;;;5.10;3.83;;;;;;;23.20;57.57;100980.02;1701451;82;21060;-48
2021/06/10 02:34:43;;;;;;;3.95;3.20;;;;;;;23.17;57.73;100984.20;1704322;82;21021;-47
2021/06/10 02:37:10;;;;;;;5.47;3.65;;;;;;;23.14;57.91;100987.91;1710191;82;21037;-48
2021/06/10 02:39:41;;;;;;;6.85;4.12;;;;;;;23.11;58.11;100993.45;1704678;82;21058;-47
2021/06/10 02:42:11;;;;;;;4.55;3.80;;;;;;;23.08;58.19;100998.13;1708846;82;21059;-47
2021/06/10 02:44:40;;;;;;;6.08;3.83;;;;;;;23.04;58.47;100992.67;1740981;80;21022;-48
2021/06/10 02:47:08;;;;;;;6.00;4.12;;;;;;;23.00;58.24;100995.16;1709783;83;21077;-48
2021/06/10 02:49:34;;;;;;;5.28;3.67;;;;;;;22.98;58.45;100986.46;1695604;83;20990;-47
2021/06/10 02:52:06;;;;;;;5.08;4.25;;;;;;;22.97;58.40;100983.42;1719309;82;21561;-48
2021/06/10 02:54:35;;;;;;;7.55;4.05;;;;;;;22.99;58.34;100992.13;1711897;82;21042;-47
2021/06/10 02:57:04;;;;;;;6.40;4.03;;;;;;;22.98;58.25;100989.11;1706851;82;21088;-47
2021/06/10 02:59:31;;;;;;;10.08;3.67;;;;;;;22.95;58.26;100983.53;1702611;83;21529;-47
2021/06/10 03:01:58;;;;;;;5.42;3.70;;;;;;;22.95;58.62;100990.17;1697540;83;21042;-47
2021/06/10 03:04:24;;;;;;;6.00;3.92;;;;;;;22.95;58.87;100989.31;1720843;83;21030;-47
2021/06/10 03:06:52;;;;;;;5.12;4.00;;;;;;;22.94;58.47;100983.62;1695896;82;21021;-48
2021/06/10 03:09:19;;;;;;;10.85;3.80;;;;;;;22.96;58.65;100989.66;1711689;82;21030;-48
2021/06/10 03:11:46;;;;;;;6.37;3.83;;;;;;;22.97;58.86;100998.02;1685028;83;21064;-48
2021/06/10 03:14:12;;;;;;;5.70;4.15;;;;;;;22.97;58.89;101005.98;1690077;83;20994;-48
2021/06/10 03:16:41;;;;;;;4.20;3.80;;;;;;;22.95;58.93;101002.11;1669669;84;21121;-48
2021/06/10 03:19:08;;;;;;;6.83;4.15;;;;;;;22.93;59.05;101001.84;1663578;85;21098;-47
2021/06/10 03:21:35;;;;;;;10.28;4.20;;;;;;;22.92;58.89;101008.09;1651190;86;21048;-48
2021/06/10 03:24:02;;;;;;;6.00;4.75;;;;;;;22.89;58.78;101003.00;1643859;85;21532;-48
2021/06/10 03:26:33;;;;;;;4.87;3.62;;;;;;;22.87;58.84;101014.20;1673024;84;21019;-48
2021/06/10 03:28:58;;;;;;;6.72;4.35;;;;;;;22.83;58.94;101010.06;1661673;85;21014;-47
2021/06/10 03:31:25;;;;;;;7.50;3.90;;;;;;;22.80;58.81;101012.44;1643787;84;21051;-48
2021/06/10 03:33:52;;;;;;;6.20;4.00;;;;;;;22.81;58.67;101017.28;1641735;85;21056;-47
2021/06/10 03:36:19;;;;;;;7.03;4.10;;;;;;;22.80;58.51;101011.58;1653909;85;21133;-48
2021/06/10 03:38:46;;;;;;;6.33;3.52;;;;;;;22.85;58.66;101015.64;1614808;86;21031;-48
2021/06/10 03:41:13;;;;;;;4.42;3.72;;;;;;;23.09;58.40;101013.09;1697029;83;21477;-47
2021/06/10 03:43:40;;;;;;;4.87;3.87;;;;;;;23.44;57.41;101013.69;1688139;83;21014;-48
2021/06/10 03:46:07;;;;;;;4.25;3.47;;;;;;;23.87;56.33;101014.11;1693996;83;21561;-48
2021/06/10 03:48:37;;;;;;;6.22;4.15;;;;;;;24.41;55.26;101017.67;1695093;83;21018;-47
2021/06/10 03:51:16;;;;;;;7.45;4.12;;;;;;;24.96;53.94;101008.54;1696654;83;21550;-48
2021/06/10 03:53:46;;;;;;;6.40;3.50;;;;;;;25.49;52.50;101014.53;1690946;83;21131;-48
2021/06/10 03:56:13;;;;;;;5.05;3.60;;;;;;;25.96;51.32;101012.54;1666366;85;21129;-48
2021/06/10 03:58:39;;;;;;;4.42;3.30;;;;;;;26.34;49.83;101012.91;1665561;85;21025;-48
2021/06/10 04:01:06;;;;;;;6.15;3.47;;;;;;;26.65;48.34;101016.56;1661185;85;21038;-48
2021/06/10 04:03:34;;;;;;;4.45;3.92;;;;;;;26.90;47.87;101009.02;1628986;86;21908;-48
2021/06/10 04:06:01;;;;;;;4.37;3.17;;;;;;;26.88;47.69;101016.31;1664711;85;21027;-48
2021/06/10 04:08:29;;;;;;;5.80;3.62;;;;;;;26.67;47.88;101010.09;1672729;85;21592;-47
2021/06/10 04:10:56;;;;;;;6.50;3.98;;;;;;;26.37;47.86;101008.20;1661202;83;21070;-48
2021/06/10 04:13:23;;;;;;;6.03;4.03;;;;;;;26.06;48.79;101013.48;1656797;85;21113;-48
2021/06/10 04:15:50;;;;;;;9.05;4.00;;;;;;;25.78;49.19;101010.38;1671752;84;21042;-47
2021/06/10 04:18:18;;;;;;;3.70;3.22;;;;;;;25.51;49.61;101012.59;1626306;86;21097;-48
2021/06/10 04:20:49;;;;;;;6.08;3.90;;;;;;;25.23;50.17;101010.39;1648244;85;21609;-48
2021/06/10 04:23:16;;;;;;;7.12;4.20;;;;;;;25.00;50.63;101021.98;1625407;86;21078;-47
2021/06/10 04:25:42;;;;;;;4.17;3.58;;;;;;;24.77;51.39;101021.59;1640593;86;21152;-47
2021/06/10 04:28:10;;;;;;;5.75;3.83;;;;;;;24.57;51.91;101027.52;1674122;85;21408;-48
2021/06/10 04:30:36;;;;;;;4.85;3.22;;;;;;;24.39;52.29;101019.59;1677105;84;21541;-48
2021/06/10 04:33:04;;;;;;;6.78;3.77;;;;;;;24.24;52.67;101025.09;1664134;85;21498;-48
2021/06/10 04:35:30;;;;;;;11.75;3.90;;;;;;;24.11;52.98;101028.79;1628852;86;21062;-48
2021/06/10 04:37:57;;;;;;;4.90;3.47;;;;;;;23.99;53.36;101030.48;1600805;88;21536;-47
2021/06/10 04:40:24;;;;;;;9.05;4.15;;;;;;;23.90;53.83;101028.52;1617563;87;21129;-47
2021/06/10 04:42:51;;;;;;;4.53;3.62;;;;;;;23.80;53.93;101027.45;1604315;87;21038;-48
2021/06/10 04:45:17;;;;;;;6.30;4.10;;;;;;;23.73;54.25;101033.33;1654179;84;21025;-47
2021/06/10 04:47:44;;;;;;;5.60;3.83;;;;;;;23.62;54.58;101032.77;1662357;84;20990;-47
2021/06/10 04:50:12;;;;;;;5.05;3.85;;;;;;;23.61;54.76;101030.23;1618614;87;21115;-48
2021/06/10 04:52:39;;;;;;;4.58;3.72;;;;;;;23.58;54.75;101031.28;1667499;83;21059;-47
2021/06/10 04:55:07;;;;;;;6.03;3.67;;;;;;;23.56;55.27;101028.36;1719962;83;21067;-48
2021/06/10 04:57:35;;;;;;;4.00;3.60;;;;;;;23.57;55.22;101032.27;1714630;82;21525;-48
2021/06/10 05:00:03;;;;;;;4.58;4.17;;;;;;;23.59;55.39;101027.69;1715722;83;21035;-48
2021/06/10 05:02:30;;;;;;;5.75;4.15;;;;;;;23.64;55.41;101028.70;1708048;82;21101;-48
2021/06/10 05:04:56;;;;;;;5.45;4.10;;;;;;;23.73;55.18;101034.19;1706692;82;21065;-48
2021/06/10 05:07:23;;;;;;;4.65;3.35;;;;;;;23.83;54.78;101027.25;1700550;83;21039;-47
2021/06/10 05:09:50;;;;;;;4.37;3.70;;;;;;;23.94;54.78;101023.34;1665867;85;21036;-48
2021/06/10 05:12:16;;;;;;;5.35;3.98;;;;;;;24.09;54.58;101026.22;1708718;83;21065;-48
2021/06/10 05:14:43;;;;;;;7.80;4.10;;;;;;;24.24;54.29;101027.76;1712818;82;21021;-48
2021/06/10 05:17:10;;;;;;;3.80;3.33;;;;;;;24.38;53.96;101027.23;1667355;85;21054;-48
2021/06/10 05:19:36;;;;;;;6.45;3.80;;;;;;;24.49;53.54;101026.78;1654416;85;21019;-48
2021/06/10 05:22:04;;;;;;;5.95;3.87;;;;;;;24.57;53.06;101034.17;1653985;86;21027;-48
2021/06/10 05:24:31;;;;;;;6.05;3.70;;;;;;;24.63;52.68;101041.22;1658799;85;21055;-47
2021/06/10 05:26:58;;;;;;;6.40;4.20;;;;;;;24.67;52.56;101040.49;1657459;85;21570;-48
2021/06/10 05:29:25;;;;;;;8.20;4.17;;;;;;;24.66;52.22;101046.80;1655399;85;21068;-47
2021/06/10 05:31:51;;;;;;;5.20;4.17;;;;;;;24.66;52.22;101046.80;1661581;85;21059;-48
2021/06/10 05:34:18;;;;;;;4.78;3.80;;;;;;;24.67;52.34;101052.47;1651493;86;21028;-49
2021/06/10 05:36:45;;;;;;;4.87;3.77;;;;;;;24.70;52.82;101057.10;1654245;86;21062;-48
2021/06/10 05:39:12;;;;;;;7.08;4.15;;;;;;;24.79;52.60;101052.93;1652620;86;21483;-48
2021/06/10 05:41:39;;;;;;;6.83;3.87;;;;;;;24.86;52.39;101043.49;1637608;85;21003;-49
2021/06/10 05:44:06;;;;;;;5.53;3.55;;;;;;;25.05;52.00;101049.11;1689731;82;21014;-49
2021/06/10 05:46:33;;;;;;;4.55;4.00;;;;;;;25.05;52.00;101049.11;1682205;83;21419;-49
2021/06/10 05:48:59;;;;;;;4.67;4.05;;;;;;;25.19;51.07;101050.22;1717772;82;21593;-49
2021/06/10 05:51:26;;;;;;;6.53;4.40;;;;;;;25.19;51.07;101050.22;1663780;85;21059;-49
2021/06/10 05:53:53;;;;;;;4.92;4.12;;;;;;;25.40;50.78;101055.69;1667634;83;21470;-48
2021/06/10 05:56:19;;;;;;;4.45;4.05;;;;;;;25.40;50.78;101055.69;1702067;82;21484;-48
2021/06/10 05:58:46;;;;;;;9.08;4.53;;;;;;;25.51;50.60;101057.06;1709995;83;20997;-49
2021/06/10 06:01:13;;;;;;;9.85;4.83;;;;;;;25.60;50.88;101058.51;1679134;84;21039;-49
2021/06/10 06:03:41;;;;;;;5.97;4.12;;;;;;;25.74;50.52;101054.25;1710120;83;21057;-49
2021/06/10 06:06:08;;;;;;;6.45;4.17;;;;;;;25.74;50.52;101054.25;1722677;82;21017;-49
2021/06/10 06:08:35;;;;;;;6.72;3.85;;;;;;;25.83;50.44;101058.86;1705650;82;20983;-50
2021/06/10 06:11:02;;;;;;;5.45;4.33;;;;;;;25.94;50.32;101062.48;1669430;85;21028;-48
2021/06/10 06:16:13;;;;;;;5.05;4.25;;;;;;;26.29;50.08;101052.48;1693644;82;21076;-49
2021/06/10 06:18:41;;;;;;;8.28;4.53;;;;;;;26.65;48.93;101053.42;1665075;84;21099;-49
2021/06/10 06:21:08;;;;;;;7.37;3.92;;;;;;;27.00;47.92;101056.66;1713497;81;21057;-48
2021/06/10 06:23:35;;;;;;;15.45;3.83;;;;;;;27.27;47.39;101055.63;1700359;82;21050;-49
2021/06/10 06:26:02;;;;;;;5.25;3.65;;;;;;;27.44;46.79;101057.36;1670593;84;21042;-49
2021/06/10 06:28:29;;;;;;;6.20;4.53;;;;;;;27.49;46.47;101051.13;1705388;81;21093;-49
2021/06/10 06:30:57;;;;;;;4.62;3.75;;;;;;;27.49;46.31;101048.46;1716084;82;20985;-49
2021/06/10 06:33:24;;;;;;;4.95;3.92;;;;;;;27.41;46.36;101044.28;1663893;85;21038;-49
2021/06/10 06:35:50;;;;;;;4.45;4.05;;;;;;;27.32;46.57;101055.24;1669303;84;21479;-49
2021/06/10 06:38:17;;;;;;;4.92;4.10;;;;;;;27.19;46.91;101045.24;1705153;82;21508;-49
2021/06/10 06:40:44;;;;;;;4.80;4.33;;;;;;;27.06;46.74;101055.31;1704517;83;21070;-49
2021/06/10 06:43:13;;;;;;;4.40;4.00;;;;;;;26.97;47.16;101052.08;1663214;85;21015;-49
2021/06/10 06:45:40;;;;;;;5.70;3.87;;;;;;;26.90;47.37;101053.08;1655304;85;21026;-48
2021/06/10 06:48:08;;;;;;;5.83;4.28;;;;;;;26.86;47.37;101052.98;1659944;85;21035;-49
2021/06/10 06:50:35;;;;;;;4.90;4.20;;;;;;;26.81;47.32;101057.86;1694717;83;21034;-50
2021/06/10 06:53:03;;;;;;;6.78;4.30;;;;;;;26.71;47.61;101052.91;1681341;84;21005;-49
2021/06/10 06:55:30;;;;;;;7.10;3.72;;;;;;;26.63;47.83;101055.88;1657331;85;21222;-49
2021/06/10 06:57:57;;;;;;;5.15;4.03;;;;;;;26.55;48.12;101056.50;1652496;85;21068;-49
2021/06/10 07:00:24;;;;;;;4.58;3.70;;;;;;;26.53;48.46;101058.45;1654137;85;21542;-48
2021/06/10 07:02:51;;;;;;;4.42;3.77;;;;;;;26.54;48.32;101060.16;1657270;85;21091;-49
2021/06/10 07:05:18;;;;;;;8.35;4.28;;;;;;;26.59;48.11;101064.13;1701251;82;21094;-48
2021/06/10 07:07:44;;;;;;;5.80;4.35;;;;;;;26.75;48.07;101063.71;1674526;84;21048;-49
2021/06/10 07:10:13;;;;;;;6.72;4.17;;;;;;;26.85;47.69;101061.14;1651721;85;21035;-49
2021/06/10 07:12:40;;;;;;;4.50;4.00;;;;;;;26.88;47.80;101067.05;1652784;85;21055;-49
2021/06/10 07:15:08;;;;;;;6.17;4.55;;;;;;;26.92;47.75;101068.48;1686890;83;21136;-49
2021/06/10 07:17:36;;;;;;;7.67;4.25;;;;;;;26.95;47.81;101072.25;1723956;82;21083;-49
2021/06/10 07:20:05;;;;;;;14.70;5.40;;;;;;;27.01;47.62;101074.39;1702744;81;21024;-49
2021/06/10 07:22:32;;;;;;;5.42;4.87;;;;;;;27.10;47.54;101076.27;1700459;83;21681;-49
2021/06/10 07:24:59;;;;;;;5.92;4.65;;;;;;;27.20;47.08;101080.35;1717172;82;20992;-48
2021/06/10 07:27:25;;;;;;;4.70;4.28;;;;;;;27.21;46.78;101074.87;1703251;82;21046;-49
2021/06/10 07:29:53;;;;;;;7.35;5.00;;;;;;;27.21;46.98;101079.36;1707651;82;21053;-47
2021/06/10 07:32:20;;;;;;;5.67;4.17;;;;;;;27.17;47.36;101073.44;1720253;82;21060;-49
2021/06/10 07:34:48;;;;;;;8.35;4.17;;;;;;;27.13;47.17;101076.02;1710964;83;20984;-49
2021/06/10 07:37:15;;;;;;;7.47;4.80;;;;;;;27.03;47.12;101072.44;1693842;82;21140;-49
2021/06/10 07:39:42;;;;;;;6.22;4.37;;;;;;;26.97;47.43;101076.11;1696128;82;21046;-49
2021/06/10 07:42:09;;;;;;;7.80;5.15;;;;;;;26.91;47.64;101074.83;1657931;84;21119;-48
2021/06/10 07:44:36;;;;;;;6.75;5.05;;;;;;;26.87;47.83;101074.72;1700825;82;20983;-49
2021/06/10 07:47:04;;;;;;;4.70;4.20;;;;;;;26.84;47.70;101072.30;1698908;82;21517;-48
2021/06/10 07:49:33;;;;;;;6.00;5.50;;;;;;;26.80;48.05;101077.53;1711121;83;21010;-49
2021/06/10 07:52:01;;;;;;;5.50;4.60;;;;;;;26.75;47.71;101073.06;1653639;85;21081;-49
2021/06/10 07:54:27;;;;;;;8.13;5.12;;;;;;;26.75;47.77;101080.25;1651165;85;21042;-49
2021/06/10 07:56:54;;;;;;;6.85;4.67;;;;;;;26.71;47.49;101068.92;1707162;83;20994;-48
2021/06/10 07:59:27;;;;;;;7.00;4.47;;;;;;;26.68;47.76;101067.86;1705163;82;21023;-49
2021/06/10 08:01:54;;;;;;;6.03;4.47;;;;;;;26.66;47.84;101076.97;1718450;83;20983;-48
2021/06/10 08:04:22;;;;;;;8.30;4.95;;;;;;;26.64;47.91;101071.77;1681347;82;21109;-48
2021/06/10 08:06:49;;;;;;;5.75;4.53;;;;;;;26.63;47.58;101070.91;1662031;85;21846;-49
2021/06/10 08:09:16;;;;;;;5.40;4.75;;;;;;;26.61;48.03;101080.02;1652910;84;21527;-48
2021/06/10 08:11:45;;;;;;;4.10;3.70;;;;;;;26.60;47.78;101074.33;1649492;85;21056;-49
2021/06/10 08:14:12;;;;;;;5.45;4.28;;;;;;;26.59;47.61;101076.63;1664935;83;21036;-49
2021/06/10 08:16:40;;;;;;;7.20;4.03;;;;;;;26.58;47.56;101077.61;1657575;85;21152;-49
2021/06/10 08:19:07;;;;;;;3.95;3.55;;;;;;;26.60;47.81;101078.34;1674662;84;21051;-49
2021/06/10 08:21:33;;;;;;;6.80;3.83;;;;;;;26.61;47.83;101082.68;1679150;83;21148;-49
2021/06/10 08:24:00;;;;;;;5.22;3.75;;;;;;;26.64;47.75;101085.11;1697965;84;21515;-49
2021/06/10 08:26:27;;;;;;;5.70;3.70;;;;;;;26.65;47.86;101092.13;1667604;85;21036;-49
2021/06/10 08:28:54;;;;;;;7.62;4.05;;;;;;;26.67;47.79;101086.69;1682758;84;21031;-49
2021/06/10 08:31:21;;;;;;;7.05;3.50;;;;;;;26.70;47.36;101085.93;1688500;83;21210;-49
2021/06/10 08:33:48;;;;;;;6.33;3.90;;;;;;;26.71;47.34;101086.78;1705925;82;20998;-49
2021/06/10 08:36:19;;;;;;;4.95;3.45;;;;;;;26.72;47.57;101084.02;1704315;82;21039;-49
2021/06/10 08:38:46;;;;;;;6.17;3.98;;;;;;;26.77;47.07;101088.46;1692588;83;21046;-49
2021/06/10 08:41:14;;;;;;;7.85;3.60;;;;;;;26.79;47.27;101087.02;1705863;82;21073;-48
2021/06/10 08:43:42;;;;;;;4.37;3.83;;;;;;;26.83;47.12;101091.95;1697119;83;21015;-48
2021/06/10 08:46:11;;;;;;;7.78;3.92;;;;;;;26.88;46.96;101091.09;1684306;84;21058;-48
2021/06/10 08:48:43;;;;;;;9.18;3.87;;;;;;;26.92;46.64;101092.52;1694200;83;21493;-48
2021/06/10 08:51:11;;;;;;;7.72;3.90;;;;;;;26.96;46.34;101095.77;1682892;83;21584;-48
2021/06/10 08:53:38;;;;;;;3.58;3.27;;;;;;;27.01;46.03;101097.58;1677441;83;21057;-48
2021/06/10 08:56:06;;;;;;;3.83;3.40;;;;;;;27.04;45.63;101094.15;1663233;84;21015;-49
2021/06/10 08:58:33;;;;;;;8.03;3.77;;;;;;;27.05;45.37;101099.87;1684840;83;21046;-48
2021/06/10 09:01:01;;;;;;;3.85;3.30;;;;;;;27.05;45.26;101098.53;1674126;83;21027;-48
2021/06/10 09:03:31;;;;;;;5.25;3.45;;;;;;;27.04;45.08;101094.15;1708960;82;20979;-49
2021/06/10 09:06:09;;;;;;;5.60;3.17;;;;;;;27.06;45.41;101092.70;1686715;82;21008;-49
2021/06/10 09:08:40;;;;;;;5.22;3.22;;;;;;;27.09;44.91;101091.95;1692636;84;21395;-50
2021/06/10 09:11:23;;;;;;;3.22;2.90;;;;;;;27.13;44.72;101100.06;1688483;83;21035;-49
2021/06/10 09:13:57;;;;;;;3.60;3.00;;;;;;;27.16;44.76;101101.12;1616709;87;21172;-49
2021/06/10 09:16:35;;;;;;;13.58;4.25;;;;;;;27.19;44.63;101093.34;1634479;86;21116;-49
2021/06/10 09:19:08;;;;;;;3.62;3.05;;;;;;;27.22;44.15;101092.58;1612621;87;21066;-50
2021/06/10 09:21:46;;;;;;;5.58;3.35;;;;;;;27.26;43.95;101096.70;1618998;87;21058;-49
2021/06/10 09:24:23;;;;;;;3.40;3.10;;;;;;;27.30;44.32;101095.95;1630466;87;21025;-49
2021/06/10 09:27:11;;;;;;;5.28;3.10;;;;;;;27.34;44.15;101091.58;1628856;87;21109;-49
2021/06/10 09:29:50;;;;;;;2.70;2.50;;;;;;;27.38;43.88;101094.83;1605895;87;21013;-48
2021/06/10 09:32:25;;;;;;;3.25;2.70;;;;;;;27.40;43.75;101084.84;1551660;91;21706;-48
2021/06/10 09:34:57;;;;;;;3.25;2.52;;;;;;;27.45;43.42;101089.80;1547633;91;21065;-48
2021/06/10 09:37:38;;;;;;;4.15;2.98;;;;;;;27.47;43.51;101086.51;1548457;91;21156;-48
2021/06/10 09:40:13;;;;;;;4.17;2.97;;;;;;;27.49;43.06;101085.88;1550244;91;21554;-49
2021/06/10 09:42:41;;;;;;;3.75;2.60;;;;;;;27.52;43.12;101082.92;1547845;91;21623;-49
2021/06/10 09:45:15;;;;;;;4.45;2.40;;;;;;;27.57;43.25;101082.05;1544529;91;21087;-49
2021/06/10 09:47:46;;;;;;;4.80;2.50;;;;;;;27.59;42.33;101082.28;1547922;90;21124;-49
2021/06/10 09:50:24;;;;;;;4.75;2.25;;;;;;;27.61;42.31;101078.13;1546136;91;21113;-49
2021/06/10 09:53:02;;;;;;;3.05;2.10;;;;;;;27.66;42.36;101075.88;1544050;91;21238;-49
2021/06/10 09:55:55;;;;;;;3.08;2.40;;;;;;;27.67;42.05;101070.90;1542007;91;21577;-49
2021/06/10 09:58:38;;;;;;;2.75;2.00;;;;;;;27.71;41.72;101072.33;1539257;91;21577;-49
2021/06/10 10:01:13;;;;;;;2.20;2.00;;;;;;;27.74;41.44;101073.41;1481855;95;21477;-48
2021/06/10 10:03:46;;;;;;;2.75;2.30;;;;;;;27.75;41.22;101072.41;1501892;93;21226;-49
2021/06/10 10:06:30;;;;;;;7.37;2.80;;;;;;;27.80;41.22;101071.52;1517722;92;21182;-49
2021/06/10 10:09:05;;;;;;;5.62;2.27;;;;;;;27.84;40.31;101075.62;1467982;96;21085;-47
2021/06/10 10:11:34;;;;;;;4.45;2.27;;;;;;;27.87;39.84;101064.63;1514265;92;21085;-47
2021/06/10 10:14:05;;;;;;;2.37;2.20;;;;;;;27.90;40.42;101061.70;1523738;93;21753;-48
2021/06/10 10:16:35;;;;;;;3.10;2.30;;;;;;;27.94;41.20;101064.45;1479430;95;21111;-48
2021/06/10 10:19:03;;;;;;;3.72;2.90;;;;;;;27.98;41.07;101057.87;1493558;94;21090;-48
2021/06/10 10:21:36;;;;;;;5.92;2.20;;;;;;;28.02;40.33;101057.95;1511673;93;21104;-47
2021/06/10 10:24:08;;;;;;;3.75;2.22;;;;;;;28.06;40.58;101051.34;1522027;92;21115;-48
2021/06/10 10:26:36;;;;;;;5.65;2.10;;;;;;;28.09;40.74;101048.38;1494204;95;21154;-48
2021/06/10 10:29:04;;;;;;;3.40;2.72;;;;;;;28.12;40.47;101051.64;1504118;93;21057;-48
2021/06/10 10:31:33;;;;;;;2.60;2.25;;;;;;;28.16;40.21;101050.86;1542821;92;21155;-47
2021/06/10 10:34:01;;;;;;;4.70;2.50;;;;;;;28.20;39.68;101042.91;1539917;92;21597;-48
2021/06/10 10:36:32;;;;;;;2.83;2.35;;;;;;;28.23;39.52;101052.02;1528512;92;21065;-48
2021/06/10 10:39:05;;;;;;;4.42;2.77;;;;;;;28.27;39.64;101048.08;1512384;94;21122;-48
2021/06/10 10:41:31;;;;;;;2.83;2.27;;;;;;;28.31;40.03;101042.80;1551467;91;21103;-48
2021/06/10 10:49:47;;;;;;;6.47;2.75;;;;;;;28.41;39.14;101050.34;1404288;101;21064;-48
2021/06/10 10:54:52;;;;;;;4.03;2.10;;;;;;;28.46;39.85;101037.36;1379849;103;21606;-48
2021/06/10 10:57:38;;;;;;;3.20;2.37;;;;;;;28.47;39.45;101035.05;1395989;102;21178;-48
2021/06/10 11:00:08;;;;;;;4.53;2.42;;;;;;;28.48;39.33;101033.22;1420149;101;21082;-48
2021/06/10 11:05:07;;;;;;;2.30;2.10;;;;;;;28.51;38.75;101033.78;1357559;105;21140;-47
2021/06/10 11:07:55;;;;;;;3.58;2.33;;;;;;;28.52;38.16;101027.94;1368822;103;21195;-49
2021/06/10 11:13:23;;;;;;;2.35;2.15;;;;;;;28.48;38.12;101030.03;1271592;110;21176;-47
2021/06/10 11:16:03;;;;;;;4.00;2.42;;;;;;;28.47;38.55;101024.34;1286833;109;21179;-48
2021/06/10 11:18:49;;;;;;;5.45;2.30;;;;;;;28.49;38.57;101021.52;1292179;109;21175;-48
2021/06/10 11:21:45;;;;;;;3.62;2.02;;;;;;;28.51;38.43;101021.73;1266985;112;21223;-49
2021/06/10 11:24:16;;;;;;;3.58;2.45;;;;;;;28.56;37.88;101013.31;1272837;111;21205;-49
2021/06/10 11:26:50;;;;;;;3.37;1.95;;;;;;;28.60;38.38;101014.23;1271833;110;21790;-48
2021/06/10 11:29:18;;;;;;;3.08;2.10;;;;;;;28.64;37.65;101014.30;1266366;112;21268;-48
2021/06/10 11:32:07;;;;;;;4.58;1.85;;;;;;;28.66;37.85;101012.80;1279535;111;21406;-49
2021/06/10 11:34:34;;;;;;;2.52;2.10;;;;;;;28.69;38.09;101012.02;1262200;112;21186;-48
2021/06/10 11:37:03;;;;;;;10.23;3.00;;;;;;;28.74;38.07;101010.25;1269199;112;21831;-48
2021/06/10 11:39:34;;;;;;;4.15;2.20;;;;;;;28.79;37.64;101008.83;1272125;112;21183;-49
2021/06/10 11:42:07;;;;;;;5.10;2.05;;;;;;;28.84;37.59;101007.91;1283881;109;21129;-49
2021/06/10 11:44:53;;;;;;;2.15;2.00;;;;;;;28.89;36.71;101006.97;1314313;107;21229;-48
2021/06/10 11:47:33;;;;;;;1.92;1.72;;;;;;;28.93;36.79;101003.53;1406578;96;21105;-48
2021/06/10 11:49:59;;;;;;;3.22;1.90;;;;;;;28.94;36.05;100996.67;1438864;95;21043;-48
2021/06/10 11:52:47;;;;;;;1.95;1.82;;;;;;;28.95;35.88;101001.03;1481970;95;21106;-48